Time;durP1;ratioP1;P1;durP2;ratioP2;P2;SDS_P1;SDS_P2;PMS_P1;PMS_P2;Temp;Humidity;BMP_temperature;BMP_pressure;BME280_temperature;BME280_humidity;BME280_pressure;Samples;Min_cycle;Max_cycle;Signal;HPM_P1;HPM_P2
2022/12/15 00:38:46;;;;;;;17.50;15.80;;;;;;;;;;4974257;28;20540;-90
2022/12/15 00:42:13;;;;;;;;;;;;;;;;;;;;;
2022/12/15 00:44:04;;;;;;;16.58;15.00;;;;;;;;;;4957920;28;20443;-89
2022/12/15 01:22:31;;;;;;;13.55;12.35;;;;;;;;;;4916282;29;20456;-91
2022/12/15 01:28:22;;;;;;;;;;;;;;;;;;;;;
2022/12/15 01:30:57;;;;;;;13.05;11.95;;;;;;;;;;4911392;29;20468;-90
2022/12/15 01:33:28;;;;;;;12.27;11.27;;;;;;;;;;4908132;29;20397;-90
2022/12/15 01:36:14;;;;;;;11.02;10.13;;;;;;;;;;4910449;29;20882;-90
2022/12/15 01:38:43;;;;;;;15.20;13.80;;;;;;;;;;4907224;29;20422;-90
2022/12/15 01:41:11;;;;;;;12.88;11.82;;;;;;;;;;4944246;28;20433;-91
2022/12/15 01:43:46;;;;;;;13.63;12.52;;;;;;;;;;4953762;28;20390;-90
2022/12/15 01:46:28;;;;;;;11.40;10.50;;;;;;;;;;4963212;28;20873;-89
2022/12/15 01:48:57;;;;;;;10.68;9.82;;;;;;;;;;4960128;28;20456;-90
2022/12/15 01:51:38;;;;;;;10.75;9.88;;;;;;;;;;4962253;28;20430;-90
2022/12/15 01:54:09;;;;;;;10.10;9.30;;;;;;;;;;4961569;28;20569;-91
2022/12/15 01:56:48;;;;;;;9.53;8.73;;;;;;;;;;4962137;28;20469;-90
2022/12/15 01:59:18;;;;;;;10.40;9.40;;;;;;;;;;4965332;28;20793;-90
2022/12/15 02:01:50;;;;;;;9.85;9.05;;;;;;;;;;4967830;28;20478;-91
2022/12/15 02:04:19;;;;;;;10.25;9.40;;;;;;;;;;4985108;28;20439;-92
2022/12/15 02:06:47;;;;;;;11.10;10.10;;;;;;;;;;5029649;28;21001;-90
2022/12/15 02:09:23;;;;;;;10.10;9.20;;;;;;;;;;5048712;28;20480;-90
2022/12/15 02:12:14;;;;;;;9.95;9.15;;;;;;;;;;5037510;28;20462;-90
2022/12/15 02:15:04;;;;;;;9.70;8.95;;;;;;;;;;5053513;28;20495;-92
2022/12/15 02:17:30;;;;;;;11.02;10.13;;;;;;;;;;5040149;28;21045;-89
2022/12/15 02:20:05;;;;;;;51.50;38.13;;;;;;;;;;5038935;28;20397;-90
2022/12/15 02:22:40;;;;;;;19.10;17.13;;;;;;;;;;5044098;28;20422;-91
2022/12/15 02:25:06;;;;;;;13.67;12.47;;;;;;;;;;5046429;28;21056;-90
2022/12/15 02:27:58;;;;;;;10.52;9.60;;;;;;;;;;5046141;28;20373;-90
2022/12/15 02:30:43;;;;;;;10.40;9.50;;;;;;;;;;5020069;28;20452;-89
2022/12/15 02:33:20;;;;;;;8.80;8.10;;;;;;;;;;5039493;28;20369;-90
2022/12/15 02:36:05;;;;;;;8.80;8.10;;;;;;;;;;5052865;28;20441;-91
2022/12/15 02:38:35;;;;;;;8.40;7.75;;;;;;;;;;5049200;28;20395;-91
2022/12/15 02:41:02;;;;;;;8.37;7.70;;;;;;;;;;5038511;28;20432;-90
2022/12/15 02:43:29;;;;;;;8.35;7.65;;;;;;;;;;5048135;28;20469;-91
2022/12/15 02:46:04;;;;;;;8.02;7.43;;;;;;;;;;5058353;28;20470;-91
2022/12/15 02:48:35;;;;;;;9.15;8.45;;;;;;;;;;5049687;28;20421;-90
2022/12/15 02:51:04;;;;;;;8.30;7.70;;;;;;;;;;5052504;28;20846;-90
2022/12/15 02:53:41;;;;;;;8.65;7.95;;;;;;;;;;5040277;28;20444;-90
2022/12/15 02:56:13;;;;;;;7.70;7.10;;;;;;;;;;5041109;28;20443;-89
2022/12/15 02:58:48;;;;;;;7.85;7.25;;;;;;;;;;5046911;28;20822;-90
2022/12/15 03:01:20;;;;;;;8.30;7.70;;;;;;;;;;5043802;28;20466;-89
2022/12/15 03:03:47;;;;;;;8.02;7.43;;;;;;;;;;5042796;28;20827;-90
2022/12/15 03:06:14;;;;;;;8.70;8.00;;;;;;;;;;5046790;28;20385;-90
2022/12/15 03:08:39;;;;;;;9.27;8.57;;;;;;;;;;5049185;28;20977;-90
2022/12/15 03:11:06;;;;;;;9.45;8.65;;;;;;;;;;5050880;28;20424;-89
2022/12/15 03:13:34;;;;;;;9.52;8.73;;;;;;;;;;5056743;28;20394;-90
2022/12/15 03:16:00;;;;;;;9.00;8.30;;;;;;;;;;5058845;28;20423;-89
2022/12/15 03:18:27;;;;;;;8.80;8.20;;;;;;;;;;5055802;28;20392;-90
2022/12/15 03:20:55;;;;;;;8.65;7.95;;;;;;;;;;5066066;28;20429;-90
2022/12/15 03:23:21;;;;;;;8.90;8.20;;;;;;;;;;5052175;28;20449;-91
2022/12/15 03:25:48;;;;;;;8.05;7.40;;;;;;;;;;5036985;28;20388;-90
2022/12/15 03:28:14;;;;;;;8.35;7.72;;;;;;;;;;5026981;28;20398;-90
2022/12/15 03:30:40;;;;;;;8.15;7.55;;;;;;;;;;5037503;28;20383;-89
2022/12/15 03:33:06;;;;;;;7.63;7.03;;;;;;;;;;5030403;28;21216;-89
2022/12/15 03:35:32;;;;;;;7.93;7.32;;;;;;;;;;5030934;28;20484;-90
2022/12/15 03:37:58;;;;;;;7.90;7.30;;;;;;;;;;5037125;28;20388;-89
2022/12/15 03:40:30;;;;;;;7.70;7.10;;;;;;;;;;5018390;28;20408;-90
2022/12/15 03:42:59;;;;;;;7.57;7.05;;;;;;;;;;5017232;28;20461;-90
2022/12/15 03:45:26;;;;;;;7.63;7.03;;;;;;;;;;5028197;28;20387;-93
2022/12/15 03:47:55;;;;;;;8.23;7.53;;;;;;;;;;5038914;28;20406;-91
2022/12/15 03:50:40;;;;;;;7.30;6.70;;;;;;;;;;5024212;28;20398;-92
2022/12/15 03:53:13;;;;;;;7.20;6.70;;;;;;;;;;5040687;28;20487;-91
2022/12/15 03:55:39;;;;;;;7.05;6.55;;;;;;;;;;5039998;28;20444;-90
2022/12/15 03:58:05;;;;;;;7.05;6.53;;;;;;;;;;5038893;28;20865;-92
2022/12/15 04:00:31;;;;;;;7.38;6.78;;;;;;;;;;5019941;28;20490;-90
2022/12/15 04:02:57;;;;;;;6.70;6.20;;;;;;;;;;5041673;28;20416;-89
2022/12/15 04:05:36;;;;;;;7.43;6.82;;;;;;;;;;5026609;28;20379;-90
2022/12/15 04:08:05;;;;;;;7.05;6.55;;;;;;;;;;5021921;28;20449;-90
2022/12/15 04:10:32;;;;;;;6.40;5.90;;;;;;;;;;5019018;28;20884;-91
2022/12/15 04:12:59;;;;;;;6.10;5.63;;;;;;;;;;5023058;28;20870;-90
2022/12/15 04:15:26;;;;;;;5.82;5.43;;;;;;;;;;5031229;28;20379;-91
2022/12/15 04:17:52;;;;;;;6.40;5.90;;;;;;;;;;5030363;28;20465;-90
2022/12/15 04:20:19;;;;;;;6.00;5.60;;;;;;;;;;5035301;28;20405;-90
2022/12/15 04:22:47;;;;;;;5.60;5.20;;;;;;;;;;5043112;28;20426;-93
2022/12/15 05:34:01;;;;;;;5.32;5.03;;;;;;;;;;5046412;28;20422;-89
2022/12/15 05:36:27;;;;;;;5.72;5.32;;;;;;;;;;5033470;28;20382;-91
2022/12/15 05:38:53;;;;;;;5.10;4.80;;;;;;;;;;5092035;28;20490;-90
2022/12/15 05:41:20;;;;;;;5.72;5.32;;;;;;;;;;5040864;28;20405;-90
2022/12/15 05:43:46;;;;;;;5.40;5.00;;;;;;;;;;5049940;28;20368;-91
2022/12/15 05:46:16;;;;;;;5.38;5.07;;;;;;;;;;5042457;28;20783;-91
2022/12/15 05:48:42;;;;;;;5.90;5.50;;;;;;;;;;5050366;28;20920;-87
2022/12/15 05:51:09;;;;;;;5.47;5.07;;;;;;;;;;5051912;28;20749;-90
2022/12/15 05:53:39;;;;;;;5.18;4.88;;;;;;;;;;5039279;28;20403;-90
2022/12/15 05:56:07;;;;;;;4.95;4.65;;;;;;;;;;5037384;28;20428;-91
2022/12/15 05:58:33;;;;;;;5.50;5.10;;;;;;;;;;5043814;28;20402;-90
2022/12/15 06:01:03;;;;;;;4.88;4.57;;;;;;;;;;5034112;28;20384;-90
2022/12/15 06:03:30;;;;;;;5.25;4.95;;;;;;;;;;5076472;28;20467;-91
2022/12/15 06:05:56;;;;;;;5.22;4.82;;;;;;;;;;5059561;28;20472;-89
2022/12/15 06:08:22;;;;;;;4.93;4.60;;;;;;;;;;5052981;28;20379;-89
2022/12/15 06:10:54;;;;;;;4.95;4.65;;;;;;;;;;5053475;28;20391;-89
2022/12/15 06:13:21;;;;;;;5.47;5.07;;;;;;;;;;5056607;28;20473;-90
2022/12/15 06:15:58;;;;;;;5.32;4.97;;;;;;;;;;5043938;28;20439;-90
2022/12/15 06:18:24;;;;;;;6.18;5.78;;;;;;;;;;5042501;28;20474;-90
2022/12/15 06:20:56;;;;;;;6.40;5.90;;;;;;;;;;5035026;28;20934;-91
2022/12/15 06:23:26;;;;;;;6.10;5.70;;;;;;;;;;5025633;28;20422;-90
2022/12/15 06:25:52;;;;;;;5.93;5.43;;;;;;;;;;5050935;28;20541;-89
2022/12/15 06:28:22;;;;;;;6.17;5.77;;;;;;;;;;5043018;28;20372;-91
2022/12/15 06:30:49;;;;;;;5.60;5.28;;;;;;;;;;5062945;28;20378;-90
2022/12/15 06:33:15;;;;;;;5.53;5.13;;;;;;;;;;5065358;28;20519;-89
2022/12/15 06:35:41;;;;;;;5.15;4.75;;;;;;;;;;5053001;28;20380;-89
2022/12/15 06:38:07;;;;;;;5.57;5.28;;;;;;;;;;5073312;28;20879;-92
2022/12/15 06:40:33;;;;;;;5.85;5.45;;;;;;;;;;5051230;28;20419;-91
2022/12/15 06:42:59;;;;;;;5.68;5.28;;;;;;;;;;5045089;28;20378;-90
2022/12/15 06:45:25;;;;;;;5.80;5.40;;;;;;;;;;5064524;28;20381;-92
2022/12/15 06:47:51;;;;;;;5.70;5.30;;;;;;;;;;5086299;28;20412;-89
2022/12/15 06:50:17;;;;;;;5.95;5.55;;;;;;;;;;5092470;28;20419;-91
2022/12/15 06:52:43;;;;;;;5.30;4.90;;;;;;;;;;5079345;28;20395;-91
2022/12/15 06:55:09;;;;;;;5.13;4.72;;;;;;;;;;5069648;28;20378;-90
2022/12/15 06:57:35;;;;;;;5.30;4.95;;;;;;;;;;5058018;28;20386;-90
2022/12/15 07:00:01;;;;;;;5.47;4.97;;;;;;;;;;5065994;28;20912;-88
2022/12/15 07:02:28;;;;;;;5.32;4.95;;;;;;;;;;5072259;28;20398;-89
2022/12/15 07:04:54;;;;;;;5.47;5.00;;;;;;;;;;5073934;28;20418;-89
2022/12/15 07:07:20;;;;;;;5.65;5.25;;;;;;;;;;5059581;28;20847;-88
2022/12/15 07:09:46;;;;;;;5.55;5.15;;;;;;;;;;5060611;28;20387;-88
2022/12/15 07:12:12;;;;;;;5.55;5.15;;;;;;;;;;5073857;28;20450;-88
2022/12/15 07:14:38;;;;;;;5.40;5.00;;;;;;;;;;5047269;28;20402;-87
2022/12/15 07:17:05;;;;;;;5.57;5.18;;;;;;;;;;5059941;28;20376;-88
2022/12/15 07:19:31;;;;;;;5.35;4.95;;;;;;;;;;5072874;28;20939;-87
2022/12/15 07:21:57;;;;;;;5.57;5.18;;;;;;;;;;5059323;28;20869;-89
2022/12/15 07:24:23;;;;;;;5.00;4.70;;;;;;;;;;5069980;28;20422;-87
2022/12/15 07:26:49;;;;;;;5.50;5.10;;;;;;;;;;5046647;28;20372;-88
2022/12/15 07:29:16;;;;;;;5.22;4.90;;;;;;;;;;5061537;28;20435;-88
2022/12/15 07:31:42;;;;;;;8.57;7.88;;;;;;;;;;5056287;28;20471;-88
2022/12/15 07:34:08;;;;;;;8.50;7.80;;;;;;;;;;5056012;28;20902;-88
2022/12/15 07:36:34;;;;;;;7.80;7.25;;;;;;;;;;5052214;28;20465;-87
2022/12/15 07:39:01;;;;;;;6.93;6.33;;;;;;;;;;5058266;28;20491;-87
2022/12/15 07:41:28;;;;;;;6.55;6.05;;;;;;;;;;5072390;28;20383;-89
2022/12/15 07:43:54;;;;;;;7.10;6.60;;;;;;;;;;5057331;28;20387;-90
2022/12/15 07:46:20;;;;;;;6.85;6.35;;;;;;;;;;5042658;28;20381;-90
2022/12/15 07:48:46;;;;;;;7.57;6.95;;;;;;;;;;5054615;28;20385;-86
2022/12/15 07:51:12;;;;;;;12.32;11.25;;;;;;;;;;5071697;28;20455;-85
2022/12/15 07:53:38;;;;;;;9.80;9.02;;;;;;;;;;5072080;28;20414;-85
2022/12/15 07:56:06;;;;;;;9.20;8.40;;;;;;;;;;5072220;28;20928;-86
2022/12/15 07:58:32;;;;;;;12.50;11.40;;;;;;;;;;5071989;28;20380;-86
2022/12/15 08:00:59;;;;;;;8.95;8.25;;;;;;;;;;5071791;28;20383;-87
2022/12/15 08:03:25;;;;;;;8.93;8.20;;;;;;;;;;5054278;28;20451;-86
2022/12/15 08:05:52;;;;;;;8.07;7.43;;;;;;;;;;5072023;28;20415;-88
2022/12/15 08:08:18;;;;;;;8.52;7.90;;;;;;;;;;5060872;28;20387;-86
2022/12/15 08:10:44;;;;;;;8.20;7.60;;;;;;;;;;5071851;28;20792;-88
2022/12/15 08:13:10;;;;;;;8.40;7.80;;;;;;;;;;5071953;28;20551;-88
2022/12/15 08:15:37;;;;;;;9.45;8.75;;;;;;;;;;5071900;28;20757;-88
2022/12/15 08:18:04;;;;;;;9.20;8.50;;;;;;;;;;5049840;28;20451;-88
2022/12/15 08:20:30;;;;;;;9.90;9.20;;;;;;;;;;5065781;28;20409;-87
2022/12/15 08:22:56;;;;;;;10.13;9.40;;;;;;;;;;5069206;28;20745;-85
2022/12/15 08:25:22;;;;;;;11.15;10.25;;;;;;;;;;5054133;28;20384;-88
2022/12/15 08:27:51;;;;;;;10.98;10.13;;;;;;;;;;5071761;28;20963;-88
2022/12/15 08:30:17;;;;;;;10.93;10.10;;;;;;;;;;5063837;28;20418;-87
2022/12/15 08:32:44;;;;;;;33.80;26.20;;;;;;;;;;5047986;28;20388;-89
2022/12/15 08:35:11;;;;;;;12.18;11.20;;;;;;;;;;5053677;28;20380;-87
2022/12/15 08:37:37;;;;;;;10.23;9.32;;;;;;;;;;5071423;28;20458;-87
2022/12/15 08:40:03;;;;;;;11.15;10.35;;;;;;;;;;5071527;28;20435;-87
2022/12/15 08:42:33;;;;;;;10.97;10.13;;;;;;;;;;5071614;28;20371;-87
2022/12/15 08:44:59;;;;;;;10.38;9.50;;;;;;;;;;5071619;28;20412;-87
2022/12/15 08:47:25;;;;;;;11.20;10.20;;;;;;;;;;5053568;28;20398;-85
2022/12/15 08:49:53;;;;;;;9.90;9.20;;;;;;;;;;5059940;28;20378;-86
2022/12/15 08:52:19;;;;;;;10.95;10.13;;;;;;;;;;5050324;28;20459;-87
2022/12/15 08:54:45;;;;;;;10.48;9.68;;;;;;;;;;5030503;28;20433;-86
2022/12/15 08:57:11;;;;;;;10.60;9.80;;;;;;;;;;5031144;28;20383;-87
2022/12/15 08:59:37;;;;;;;11.07;10.23;;;;;;;;;;5028774;28;20415;-88
2022/12/15 09:02:03;;;;;;;11.50;10.60;;;;;;;;;;5033345;28;20374;-88
2022/12/15 09:04:29;;;;;;;12.43;11.43;;;;;;;;;;5035524;28;20803;-87
2022/12/15 09:06:55;;;;;;;12.18;11.10;;;;;;;;;;5032170;28;20381;-87
2022/12/15 09:09:21;;;;;;;11.63;10.73;;;;;;;;;;5035351;28;20386;-86
2022/12/15 09:11:48;;;;;;;11.93;11.02;;;;;;;;;;5035143;28;20864;-86
2022/12/15 09:14:14;;;;;;;14.15;12.85;;;;;;;;;;5034561;28;20382;-88
2022/12/15 09:16:40;;;;;;;12.03;11.10;;;;;;;;;;5035097;28;20437;-87
2022/12/15 09:19:07;;;;;;;11.82;10.88;;;;;;;;;;5030551;28;20776;-87
2022/12/15 09:21:33;;;;;;;12.38;11.38;;;;;;;;;;5034811;28;20386;-87
2022/12/15 09:24:00;;;;;;;12.55;11.55;;;;;;;;;;5022975;28;20444;-88
2022/12/15 09:26:27;;;;;;;13.45;12.45;;;;;;;;;;5033417;28;20385;-88
2022/12/15 09:28:56;;;;;;;14.77;13.57;;;;;;;;;;5035115;28;20852;-89
2022/12/15 09:31:27;;;;;;;16.05;14.60;;;;;;;;;;5027909;28;20464;-87
2022/12/15 09:33:54;;;;;;;15.48;14.10;;;;;;;;;;5033917;28;20478;-88
2022/12/15 09:36:21;;;;;;;15.40;14.10;;;;;;;;;;5032740;28;20463;-89
2022/12/15 09:38:47;;;;;;;16.87;15.27;;;;;;;;;;5033310;28;20751;-88
2022/12/15 09:41:13;;;;;;;16.15;14.75;;;;;;;;;;5027500;28;20389;-87
2022/12/15 09:43:59;;;;;;;17.15;15.55;;;;;;;;;;5029679;28;20742;-88
2022/12/15 09:46:35;;;;;;;40.80;31.13;;;;;;;;;;5016422;28;20429;-87
2022/12/15 09:49:03;;;;;;;20.15;18.23;;;;;;;;;;5023527;28;20407;-89
2022/12/15 09:51:33;;;;;;;22.02;19.70;;;;;;;;;;5034351;28;20447;-86
2022/12/15 09:53:59;;;;;;;17.50;15.90;;;;;;;;;;5041340;28;20411;-88
2022/12/15 09:56:54;;;;;;;17.67;16.05;;;;;;;;;;5045298;28;20511;-87
2022/12/15 09:59:37;;;;;;;20.20;18.20;;;;;;;;;;5004685;28;20848;-86
2022/12/15 10:02:15;;;;;;;18.55;16.75;;;;;;;;;;5031937;28;20430;-86
2022/12/15 10:04:57;;;;;;;19.30;17.38;;;;;;;;;;5036337;28;20856;-89
2022/12/15 10:07:36;;;;;;;17.98;16.27;;;;;;;;;;5034643;28;20582;-88
2022/12/15 10:10:21;;;;;;;19.05;17.25;;;;;;;;;;5033364;28;20453;-87
2022/12/15 10:12:49;;;;;;;18.15;16.35;;;;;;;;;;5036202;28;20455;-86
2022/12/15 10:15:21;;;;;;;18.75;16.95;;;;;;;;;;5026081;28;20458;-87
2022/12/15 10:18:00;;;;;;;18.75;16.85;;;;;;;;;;5020422;28;20421;-85
2022/12/15 10:20:28;;;;;;;21.17;18.97;;;;;;;;;;5024303;28;20457;-85
2022/12/15 10:22:56;;;;;;;20.90;18.80;;;;;;;;;;5028206;28;20395;-88
2022/12/15 10:25:30;;;;;;;21.75;19.48;;;;;;;;;;5039651;28;20392;-88
2022/12/15 10:28:02;;;;;;;21.30;19.00;;;;;;;;;;5048441;28;20589;-88
2022/12/15 10:30:29;;;;;;;21.52;19.20;;;;;;;;;;5046298;28;20467;-89
2022/12/15 10:32:58;;;;;;;22.33;20.02;;;;;;;;;;5055981;28;20472;-88
2022/12/15 10:35:35;;;;;;;24.80;20.90;;;;;;;;;;5035133;28;20488;-87
2022/12/15 10:38:05;;;;;;;22.63;20.33;;;;;;;;;;5036029;28;20747;-87
2022/12/15 10:40:46;;;;;;;21.53;19.23;;;;;;;;;;5053948;28;20469;-89
2022/12/15 10:43:32;;;;;;;21.38;18.90;;;;;;;;;;5054071;28;20492;-88
2022/12/15 10:46:01;;;;;;;22.55;20.13;;;;;;;;;;5036482;28;20440;-88
2022/12/15 10:48:27;;;;;;;24.48;21.38;;;;;;;;;;5040392;28;20443;-87
2022/12/15 10:51:07;;;;;;;23.48;20.90;;;;;;;;;;5053715;28;20771;-88
2022/12/15 10:53:39;;;;;;;22.30;20.00;;;;;;;;;;5063901;28;20521;-88
2022/12/15 10:56:07;;;;;;;23.70;21.17;;;;;;;;;;5073732;28;20476;-87
2022/12/15 10:58:44;;;;;;;23.88;20.92;;;;;;;;;;5057577;28;20438;-87
2022/12/15 11:01:16;;;;;;;22.45;20.05;;;;;;;;;;5048380;28;20911;-87
2022/12/15 11:03:42;;;;;;;26.23;21.92;;;;;;;;;;5056347;28;20739;-89
2022/12/15 11:06:15;;;;;;;24.40;21.53;;;;;;;;;;5072461;28;20917;-88
2022/12/15 11:08:42;;;;;;;25.02;22.33;;;;;;;;;;5062839;28;20896;-89
2022/12/15 11:14:17;;;;;;;25.33;22.73;;;;;;;;;;5073197;28;20367;-88
2022/12/15 11:16:45;;;;;;;28.02;23.10;;;;;;;;;;5073120;28;20380;-88
2022/12/15 11:19:13;;;;;;;26.93;22.93;;;;;;;;;;5072343;28;20453;-88
2022/12/15 11:21:43;;;;;;;27.75;23.80;;;;;;;;;;5058471;28;20382;-89
2022/12/15 11:24:28;;;;;;;29.73;25.08;;;;;;;;;;5066274;28;20378;-89
2022/12/15 11:27:03;;;;;;;30.70;25.13;;;;;;;;;;5065412;28;20377;-85
2022/12/15 11:29:29;;;;;;;27.48;23.95;;;;;;;;;;5067352;28;20422;-88
2022/12/15 11:31:55;;;;;;;28.60;24.63;;;;;;;;;;5070456;28;20714;-89
2022/12/15 11:34:23;;;;;;;26.70;22.95;;;;;;;;;;5052018;28;20395;-90
2022/12/15 11:36:52;;;;;;;26.83;23.87;;;;;;;;;;5044981;28;20899;-89
2022/12/15 11:39:29;;;;;;;28.83;24.60;;;;;;;;;;5072291;28;20437;-87
2022/12/15 11:42:06;;;;;;;29.75;25.23;;;;;;;;;;5051052;28;20420;-87
2022/12/15 11:44:35;;;;;;;28.85;24.73;;;;;;;;;;5049765;28;20397;-88
2022/12/15 11:47:10;;;;;;;29.20;24.83;;;;;;;;;;5068109;28;20386;-85
2022/12/15 11:49:54;;;;;;;31.90;26.50;;;;;;;;;;5068742;28;20457;-85
2022/12/15 11:52:20;;;;;;;26.65;23.70;;;;;;;;;;5042680;28;20396;-86
2022/12/15 11:55:02;;;;;;;28.98;24.45;;;;;;;;;;5040454;28;20410;-85
2022/12/15 11:57:39;;;;;;;27.73;23.65;;;;;;;;;;5039141;28;20380;-85
2022/12/15 12:00:11;;;;;;;28.45;23.65;;;;;;;;;;5062996;28;20892;-87
2022/12/15 12:02:49;;;;;;;29.95;25.38;;;;;;;;;;5041770;28;20919;-87
2022/12/15 12:05:18;;;;;;;28.42;24.58;;;;;;;;;;5041707;28;20418;-87
2022/12/15 12:07:46;;;;;;;31.27;25.95;;;;;;;;;;5065275;28;20403;-87
2022/12/15 12:10:30;;;;;;;29.42;24.60;;;;;;;;;;5023147;28;20403;-88
2022/12/15 12:12:56;;;;;;;30.52;26.10;;;;;;;;;;5048765;28;20390;-87
2022/12/15 12:15:22;;;;;;;29.98;25.05;;;;;;;;;;5036258;28;20887;-87
2022/12/15 12:17:52;;;;;;;32.53;26.40;;;;;;;;;;5038945;28;20384;-85
2022/12/15 12:20:26;;;;;;;32.33;27.23;;;;;;;;;;5038160;28;20413;-87
2022/12/15 12:23:04;;;;;;;29.63;25.73;;;;;;;;;;5016145;28;22177;-89
2022/12/15 12:25:32;;;;;;;31.00;25.80;;;;;;;;;;5053040;28;20376;-87
2022/12/15 12:28:01;;;;;;;31.83;26.63;;;;;;;;;;5054629;28;20447;-90
2022/12/15 12:30:32;;;;;;;32.53;26.92;;;;;;;;;;5034036;28;20859;-91
2022/12/15 12:33:02;;;;;;;32.15;26.52;;;;;;;;;;5051731;28;20859;-90
2022/12/15 12:35:58;;;;;;;33.93;27.30;;;;;;;;;;5061723;28;20456;-91
2022/12/15 12:38:30;;;;;;;30.88;26.45;;;;;;;;;;5029831;28;20387;-90
2022/12/15 12:40:56;;;;;;;32.83;26.67;;;;;;;;;;5040931;28;20422;-90
2022/12/15 12:43:22;;;;;;;32.57;25.80;;;;;;;;;;5057794;28;20941;-91
2022/12/15 12:45:51;;;;;;;31.80;27.20;;;;;;;;;;5056973;28;20455;-91
2022/12/15 12:48:39;;;;;;;33.45;27.38;;;;;;;;;;5071576;28;20473;-90
2022/12/15 12:51:23;;;;;;;36.10;28.83;;;;;;;;;;5045305;23;20425;-88
2022/12/15 12:53:50;;;;;;;35.75;28.77;;;;;;;;;;5051209;28;20451;-90
2022/12/15 12:56:31;;;;;;;36.35;28.73;;;;;;;;;;5051261;28;20409;-91
2022/12/15 12:58:57;;;;;;;39.40;29.45;;;;;;;;;;5040931;28;25092;-90
2022/12/15 13:01:29;;;;;;;37.85;28.77;;;;;;;;;;5050705;28;20472;-91
2022/12/15 13:04:24;;;;;;;39.50;29.73;;;;;;;;;;5065115;28;20443;-91
2022/12/15 13:06:50;;;;;;;38.87;29.77;;;;;;;;;;4996570;28;20467;-91
2022/12/15 13:21:34;;;;;;;41.58;31.75;;;;;;;;;;4952668;29;20424;-91
2022/12/15 13:43:51;;;;;;;46.45;33.22;;;;;;;;;;4703226;30;20422;-90
2022/12/15 13:49:41;;;;;;;48.17;33.75;;;;;;;;;;4841658;29;20398;-89
2022/12/15 13:55:48;;;;;;;46.67;33.72;;;;;;;;;;4859628;29;20402;-91
2022/12/15 13:58:52;;;;;;;;;;;;;;;;;;;;;
2022/12/15 14:01:52;;;;;;;48.95;35.53;;;;;;;;;;4848144;29;25141;-91
2022/12/15 14:14:26;;;;;;;51.13;35.42;;;;;;;;;;4785242;30;20471;-91
2022/12/15 14:17:15;;;;;;;51.53;35.65;;;;;;;;;;4778475;30;20479;-91
2022/12/15 14:46:19;;;;;;;61.15;39.08;;;;;;;;;;5184601;22;20433;-88
2022/12/15 14:48:56;;;;;;;58.60;38.35;;;;;;;;;;5072954;28;20753;-91
2022/12/15 14:51:26;;;;;;;63.63;39.80;;;;;;;;;;5053632;28;20384;-90
2022/12/15 14:53:53;;;;;;;57.25;36.78;;;;;;;;;;5053622;28;20382;-91
2022/12/15 14:56:19;;;;;;;68.57;43.25;;;;;;;;;;5053753;28;20382;-92
2022/12/15 14:59:07;;;;;;;58.22;38.10;;;;;;;;;;5048133;28;20404;-90
2022/12/15 15:01:40;;;;;;;57.78;37.25;;;;;;;;;;5042735;28;20417;-90
2022/12/15 15:04:21;;;;;;;57.22;37.28;;;;;;;;;;5051173;28;20511;-91
2022/12/15 15:06:54;;;;;;;56.28;37.03;;;;;;;;;;5044400;28;20381;-91
2022/12/15 15:09:24;;;;;;;57.15;37.20;;;;;;;;;;5053134;28;20385;-91
2022/12/15 15:11:52;;;;;;;56.42;37.38;;;;;;;;;;5050880;28;20391;-90
2022/12/15 15:14:27;;;;;;;61.90;39.35;;;;;;;;;;5059397;28;20887;-92
2022/12/15 15:17:16;;;;;;;61.40;38.22;;;;;;;;;;5052561;28;20862;-90
2022/12/15 15:19:47;;;;;;;63.33;40.00;;;;;;;;;;5016063;28;20475;-88
2022/12/15 15:22:24;;;;;;;61.47;38.60;;;;;;;;;;5044315;28;20498;-89
2022/12/15 15:24:51;;;;;;;62.00;39.47;;;;;;;;;;5052998;28;20398;-88
2022/12/15 15:27:23;;;;;;;60.08;38.70;;;;;;;;;;5053124;28;20382;-89
2022/12/15 15:29:49;;;;;;;58.20;37.83;;;;;;;;;;5049364;28;20370;-87
2022/12/15 15:32:17;;;;;;;59.17;38.58;;;;;;;;;;5052725;28;20780;-88
2022/12/15 15:34:46;;;;;;;62.10;39.47;;;;;;;;;;5052676;28;20378;-90
2022/12/15 15:37:16;;;;;;;64.72;39.63;;;;;;;;;;5052620;28;20897;-88
2022/12/15 15:39:45;;;;;;;60.17;38.58;;;;;;;;;;5052008;28;20401;-90
2022/12/15 15:42:14;;;;;;;65.95;39.92;;;;;;;;;;5052446;28;20431;-89
2022/12/15 15:44:40;;;;;;;62.35;38.92;;;;;;;;;;5051260;28;20389;-88
2022/12/15 15:47:41;;;;;;;66.32;40.15;;;;;;;;;;5055507;28;20744;-92
2022/12/15 15:50:20;;;;;;;63.50;40.17;;;;;;;;;;5053669;28;25104;-90
2022/12/15 15:52:46;;;;;;;63.45;39.25;;;;;;;;;;5040714;28;20384;-89
2022/12/15 15:55:31;;;;;;;64.55;40.20;;;;;;;;;;5052208;28;20385;-90
2022/12/15 15:57:57;;;;;;;65.85;40.65;;;;;;;;;;5022240;28;20759;-90
2022/12/15 16:00:24;;;;;;;73.07;42.97;;;;;;;;;;5052150;28;20409;-87
2022/12/15 16:02:50;;;;;;;65.70;40.63;;;;;;;;;;5052359;28;20897;-88
2022/12/15 16:05:16;;;;;;;67.95;43.03;;;;;;;;;;5051201;28;20400;-88
2022/12/15 16:07:43;;;;;;;72.38;43.00;;;;;;;;;;5051292;28;20373;-88
2022/12/15 16:10:13;;;;;;;63.67;40.23;;;;;;;;;;5052045;28;20374;-88
2022/12/15 16:12:47;;;;;;;65.18;39.63;;;;;;;;;;5050125;28;20508;-88
2022/12/15 16:15:20;;;;;;;68.55;41.15;;;;;;;;;;5050411;28;25122;-86
2022/12/15 16:17:47;;;;;;;66.40;41.38;;;;;;;;;;5051171;28;20430;-89
2022/12/15 16:20:14;;;;;;;65.03;41.03;;;;;;;;;;5051165;28;20405;-88
2022/12/15 16:22:41;;;;;;;60.72;38.85;;;;;;;;;;5051782;28;20373;-88
2022/12/15 16:25:16;;;;;;;60.20;37.70;;;;;;;;;;5051862;28;20389;-88
2022/12/15 16:27:42;;;;;;;62.70;40.05;;;;;;;;;;5051724;28;20405;-88
2022/12/15 16:30:14;;;;;;;61.22;39.42;;;;;;;;;;5048608;28;20475;-88
2022/12/15 16:32:42;;;;;;;61.45;39.45;;;;;;;;;;5051287;28;20422;-89
2022/12/15 16:35:08;;;;;;;59.67;38.73;;;;;;;;;;5051066;28;20424;-89
2022/12/15 16:37:35;;;;;;;63.08;38.90;;;;;;;;;;5051294;28;20464;-89
2022/12/15 16:40:01;;;;;;;58.27;38.17;;;;;;;;;;5051134;28;20455;-89
2022/12/15 16:42:27;;;;;;;59.08;38.75;;;;;;;;;;5052076;28;20375;-88
2022/12/15 16:44:53;;;;;;;60.90;37.87;;;;;;;;;;5051844;28;20374;-89
2022/12/15 16:47:19;;;;;;;57.27;37.13;;;;;;;;;;5047723;28;20460;-87
2022/12/15 16:49:45;;;;;;;59.60;38.22;;;;;;;;;;5055682;28;20424;-89
2022/12/15 16:52:18;;;;;;;59.78;37.50;;;;;;;;;;5051075;28;20400;-90
2022/12/15 16:54:44;;;;;;;58.97;38.63;;;;;;;;;;5048897;28;20457;-89
2022/12/15 16:57:11;;;;;;;57.45;37.10;;;;;;;;;;5034395;28;20372;-89
2022/12/15 16:59:37;;;;;;;57.03;37.45;;;;;;;;;;5048439;28;20872;-89
2022/12/15 17:02:22;;;;;;;60.47;37.55;;;;;;;;;;5048436;28;20413;-89
2022/12/15 17:04:49;;;;;;;59.17;37.38;;;;;;;;;;5050236;28;20385;-88
2022/12/15 17:07:15;;;;;;;61.87;39.57;;;;;;;;;;5051175;28;20381;-91
2022/12/15 17:09:41;;;;;;;63.13;40.33;;;;;;;;;;5049844;28;20786;-88
2022/12/15 17:12:11;;;;;;;62.92;38.88;;;;;;;;;;5047059;28;20393;-90
2022/12/15 17:14:37;;;;;;;58.88;37.80;;;;;;;;;;5052237;28;20379;-90
2022/12/15 17:17:10;;;;;;;59.55;37.38;;;;;;;;;;5055787;28;20404;-90
2022/12/15 17:19:36;;;;;;;62.15;39.70;;;;;;;;;;5068051;28;20411;-86
2022/12/15 17:22:03;;;;;;;59.72;37.05;;;;;;;;;;5061137;28;20420;-88
2022/12/15 17:24:29;;;;;;;59.22;37.67;;;;;;;;;;5044244;28;20387;-90
2022/12/15 17:26:55;;;;;;;59.00;37.73;;;;;;;;;;5056650;28;20464;-90
2022/12/15 17:29:22;;;;;;;60.05;37.92;;;;;;;;;;5056032;28;20389;-86
2022/12/15 17:31:48;;;;;;;147.85;79.80;;;;;;;;;;5052595;28;20401;-87
2022/12/15 17:34:30;;;;;;;110.63;62.97;;;;;;;;;;5055960;28;20884;-87
2022/12/15 17:36:58;;;;;;;72.72;44.00;;;;;;;;;;5055712;28;20377;-87
2022/12/15 17:39:25;;;;;;;92.22;53.33;;;;;;;;;;5055476;28;20420;-89
2022/12/15 17:41:51;;;;;;;66.00;40.38;;;;;;;;;;5047410;28;20383;-89
2022/12/15 17:44:27;;;;;;;62.20;39.33;;;;;;;;;;5051127;28;20442;-88
2022/12/15 17:46:53;;;;;;;62.80;39.37;;;;;;;;;;5051522;28;20446;-88
2022/12/15 17:49:19;;;;;;;55.30;36.55;;;;;;;;;;5052936;28;20933;-88
2022/12/15 17:51:46;;;;;;;59.45;37.50;;;;;;;;;;5047384;28;20470;-90
2022/12/15 17:54:16;;;;;;;56.73;36.20;;;;;;;;;;5053356;28;20420;-88
2022/12/15 17:56:43;;;;;;;56.90;36.95;;;;;;;;;;5052809;28;20850;-88
2022/12/15 17:59:12;;;;;;;62.40;37.33;;;;;;;;;;5053415;28;20480;-85
2022/12/15 18:01:38;;;;;;;54.90;35.90;;;;;;;;;;5035722;28;20524;-88
2022/12/15 18:04:04;;;;;;;58.75;37.08;;;;;;;;;;5054451;28;20409;-89
2022/12/15 18:06:30;;;;;;;60.83;37.30;;;;;;;;;;5054591;28;20811;-89
2022/12/15 18:08:56;;;;;;;59.80;37.27;;;;;;;;;;5054561;28;20374;-89
2022/12/15 18:11:22;;;;;;;58.70;36.75;;;;;;;;;;5054042;28;20381;-89
2022/12/15 18:13:48;;;;;;;60.90;37.87;;;;;;;;;;5054151;28;20424;-88
2022/12/15 18:16:14;;;;;;;58.20;35.80;;;;;;;;;;5054257;28;20394;-90
2022/12/15 18:18:40;;;;;;;61.05;37.42;;;;;;;;;;5036258;28;20963;-88
2022/12/15 18:21:14;;;;;;;60.60;36.92;;;;;;;;;;5053697;28;20486;-90
2022/12/15 18:23:40;;;;;;;63.28;39.35;;;;;;;;;;5052559;28;20407;-89
2022/12/15 18:26:06;;;;;;;64.47;37.80;;;;;;;;;;5051315;28;20383;-89
2022/12/15 18:28:34;;;;;;;61.17;37.78;;;;;;;;;;5031027;28;20377;-88
2022/12/15 18:31:19;;;;;;;62.63;37.83;;;;;;;;;;5049150;28;20867;-87